createdAt,value
2022-11-25T06:27:04.070Z,11.77
2022-11-25T06:29:30.605Z,11.73
2022-11-25T06:31:57.069Z,11.68
2022-11-25T06:34:26.348Z,11.62
2022-11-25T06:36:53.594Z,11.56
2022-11-25T06:39:20.289Z,11.50
2022-11-25T06:41:47.370Z,11.44
2022-11-25T06:46:43.163Z,11.31
2022-11-25T06:49:09.980Z,11.26
2022-11-25T06:51:36.423Z,11.20
2022-11-25T06:54:02.935Z,11.17
2022-11-25T06:56:29.695Z,11.15
2022-11-25T06:58:56.156Z,11.12
2022-11-25T07:01:24.275Z,11.09
2022-11-25T07:03:52.659Z,11.07
2022-11-25T07:06:19.735Z,11.06
2022-11-25T07:08:46.842Z,11.05
2022-11-25T07:11:26.627Z,11.03
2022-11-25T07:13:57.550Z,11.04
2022-11-25T07:16:24.616Z,11.03
2022-11-25T07:18:51.035Z,11.02
2022-11-25T07:21:18.587Z,11.02
2022-11-25T07:23:45.890Z,11.02
2022-11-25T07:26:15.451Z,11.03
2022-11-25T07:28:41.860Z,11.01
2022-11-25T07:31:23.340Z,11.01
2022-11-25T07:33:55.964Z,11.01
2022-11-25T07:36:22.684Z,10.98
2022-11-25T07:38:49.032Z,10.98
2022-11-25T07:41:16.721Z,10.99
2022-11-25T07:43:46.587Z,10.99
2022-11-25T07:46:26.239Z,11.01
2022-11-25T07:48:54.120Z,11.01
2022-11-25T07:51:23.505Z,11.02
2022-11-25T07:53:50.357Z,11.04
2022-11-25T07:56:17.961Z,11.04
2022-11-25T07:58:46.135Z,11.06
2022-11-25T08:01:13.314Z,11.09
2022-11-25T08:03:40.603Z,11.10
2022-11-25T08:06:08.517Z,11.11
2022-11-25T08:08:35.681Z,11.13
2022-11-25T08:11:05.827Z,11.15
2022-11-25T08:13:32.695Z,11.16
2022-11-25T08:15:59.650Z,11.18
2022-11-25T08:18:25.986Z,11.20
2022-11-25T08:20:52.362Z,11.21
2022-11-25T08:23:18.733Z,11.23
2022-11-25T08:25:50.130Z,11.26
2022-11-25T08:28:16.909Z,11.27
2022-11-25T08:30:43.339Z,11.31
2022-11-25T08:33:09.933Z,11.32
2022-11-25T08:35:38.019Z,11.34
2022-11-25T08:38:05.786Z,11.35
2022-11-25T08:40:33.407Z,11.36
2022-11-25T08:42:59.809Z,11.37
2022-11-25T08:45:26.249Z,11.40
2022-11-25T08:47:52.694Z,11.41
2022-11-25T08:50:19.081Z,11.43
2022-11-25T08:52:45.483Z,11.44
2022-11-25T08:55:11.881Z,11.46
2022-11-25T08:57:38.238Z,11.47
2022-11-25T09:00:05.555Z,11.50
2022-11-25T09:02:31.996Z,11.52
2022-11-25T09:04:58.374Z,11.53
2022-11-25T09:07:30.355Z,11.56
2022-11-25T09:09:57.142Z,11.57
2022-11-25T09:12:23.574Z,11.59
2022-11-25T09:14:49.975Z,11.61
2022-11-25T09:17:16.553Z,11.61
2022-11-25T09:19:42.891Z,11.64
2022-11-25T09:22:09.378Z,11.65
2022-11-25T09:24:36.288Z,11.64
2022-11-25T09:27:02.828Z,11.66
2022-11-25T09:29:30.914Z,11.70
2022-11-25T09:31:57.358Z,11.72
2022-11-25T09:34:24.450Z,11.72
2022-11-25T09:36:51.583Z,11.74
2022-11-25T09:39:17.987Z,11.77
2022-11-25T09:42:06.012Z,11.76
2022-11-25T09:45:03.907Z,11.77
2022-11-25T09:47:30.262Z,11.81
2022-11-25T09:49:59.616Z,11.83
2022-11-25T09:52:44.920Z,11.84
2022-11-25T09:55:15.547Z,11.86
2022-11-25T09:57:59.090Z,11.86
2022-11-25T10:00:27.596Z,11.89
2022-11-25T10:03:06.977Z,11.89
2022-11-25T10:05:37.944Z,11.91
2022-11-25T10:08:24.605Z,11.91
2022-11-25T10:10:58.656Z,11.93
2022-11-25T10:13:29.371Z,11.97
2022-11-25T10:15:59.096Z,11.96
2022-11-25T10:18:30.147Z,11.99
2022-11-25T10:20:56.507Z,12.01
2022-11-25T10:23:28.143Z,12.01
2022-11-25T10:26:01.337Z,12.02
2022-11-25T10:28:31.839Z,12.06
2022-11-25T10:31:04.663Z,12.05
2022-11-25T10:33:32.752Z,12.07
2022-11-25T10:36:00.847Z,12.08
2022-11-25T10:38:45.616Z,12.09
2022-11-25T10:41:15.632Z,12.10
2022-11-25T10:43:42.407Z,12.07
2022-11-25T10:46:16.437Z,12.10
2022-11-25T10:48:50.300Z,12.09
2022-11-25T10:51:27.887Z,12.11
2022-11-25T10:54:12.783Z,12.11
2022-11-25T10:56:43.145Z,12.09
2022-11-25T10:59:13.596Z,12.11
2022-11-25T11:01:40.127Z,12.12
2022-11-25T11:04:13.018Z,12.12
2022-11-25T11:06:40.588Z,12.12
2022-11-25T11:09:26.881Z,12.12
2022-11-25T11:11:53.250Z,12.14
2022-11-25T11:14:21.001Z,12.15
2022-11-25T11:16:55.013Z,12.16
2022-11-25T11:19:26.016Z,12.13
2022-11-25T11:21:52.822Z,12.18
2022-11-25T11:24:29.855Z,12.17
2022-11-25T11:27:14.879Z,12.18
2022-11-25T11:29:41.346Z,12.20
2022-11-25T11:32:18.326Z,12.20
2022-11-25T11:34:48.110Z,12.22
2022-11-25T11:37:17.618Z,12.22
2022-11-25T11:39:54.970Z,12.23
2022-11-25T11:42:29.474Z,12.22
2022-11-25T11:45:12.422Z,12.25
2022-11-25T11:47:57.534Z,12.26
2022-11-25T11:50:26.465Z,12.27
2022-11-25T11:52:52.799Z,12.27
2022-11-25T11:55:28.458Z,12.26
2022-11-25T11:58:04.037Z,12.29
2022-11-25T12:00:33.397Z,12.28
2022-11-25T12:03:02.469Z,12.31
2022-11-25T12:05:31.572Z,12.33
2022-11-25T12:08:02.060Z,12.31
2022-11-25T12:10:47.115Z,12.33
2022-11-25T12:13:19.337Z,12.35
2022-11-25T12:15:45.711Z,12.34
2022-11-25T12:18:15.873Z,12.34
2022-11-25T12:20:51.000Z,12.38
2022-11-25T12:23:32.749Z,12.37
2022-11-25T12:26:02.719Z,12.39
2022-11-25T12:28:33.842Z,12.42
2022-11-25T12:31:13.029Z,12.44
2022-11-25T12:33:45.223Z,12.45
2022-11-25T12:36:20.900Z,12.47
2022-11-25T12:38:54.732Z,12.49
2022-11-25T12:41:27.000Z,12.52
2022-11-25T12:44:00.572Z,12.53
2022-11-25T12:46:33.919Z,12.55
2022-11-25T12:49:01.297Z,12.58
2022-11-25T12:51:40.443Z,12.61
2022-11-25T12:54:13.106Z,12.63
2022-11-25T12:56:45.595Z,12.65
2022-11-25T12:59:11.992Z,12.68
2022-11-25T13:01:38.815Z,12.70
2022-11-25T13:04:11.681Z,12.72
2022-11-25T13:06:50.036Z,12.75
2022-11-25T13:09:19.536Z,12.76
2022-11-25T13:12:12.933Z,12.76
2022-11-25T13:14:55.132Z,12.78
2022-11-25T13:17:23.068Z,12.80
2022-11-25T13:19:49.692Z,12.84
2022-11-25T13:22:23.586Z,12.86
2022-11-25T13:24:50.203Z,12.88
2022-11-25T13:27:33.632Z,12.90
2022-11-25T13:30:01.111Z,12.94
2022-11-25T13:32:33.767Z,12.96
2022-11-25T13:35:19.152Z,12.98
2022-11-25T13:37:45.677Z,12.99
2022-11-25T13:40:31.165Z,13.01
2022-11-25T13:43:00.502Z,13.02
2022-11-25T13:45:26.982Z,12.99
2022-11-25T13:47:54.791Z,13.00
2022-11-25T13:50:22.774Z,12.99
2022-11-25T13:53:08.197Z,12.99
2022-11-25T13:55:36.208Z,13.00
2022-11-25T13:58:05.691Z,13.00
2022-11-25T14:00:32.111Z,13.00
2022-11-25T14:03:18.551Z,13.02
2022-11-25T14:05:51.076Z,13.04
2022-11-25T14:08:20.639Z,13.08
2022-11-25T14:10:56.135Z,13.10
2022-11-25T14:13:41.449Z,13.17
2022-11-25T14:16:26.969Z,13.20
2022-11-25T14:19:43.794Z,13.25
2022-11-25T14:22:07.329Z,13.28
2022-11-25T14:24:39.912Z,13.32
2022-11-25T14:27:13.985Z,13.35
2022-11-25T14:29:50.878Z,13.40
2022-11-25T14:32:23.320Z,13.42
2022-11-25T14:34:54.148Z,13.44
2022-11-25T14:37:26.169Z,13.46
2022-11-25T14:39:52.589Z,13.47
2022-11-25T14:42:21.206Z,13.47
2022-11-25T14:44:49.242Z,13.49
2022-11-25T14:47:15.765Z,13.48
2022-11-25T14:49:59.502Z,13.50
2022-11-25T14:52:36.049Z,13.50
2022-11-25T14:55:04.721Z,13.50
2022-11-25T14:57:35.992Z,13.51
2022-11-25T15:00:04.911Z,13.52
2022-11-25T15:02:33.419Z,13.51
2022-11-25T15:05:15.032Z,13.51
2022-11-25T15:07:43.323Z,13.49
2022-11-25T15:10:32.763Z,13.47
2022-11-25T15:13:00.277Z,13.45
2022-11-25T15:15:27.318Z,13.42
2022-11-25T15:17:55.337Z,13.40
2022-11-25T15:20:24.850Z,13.38
2022-11-25T15:22:52.461Z,13.34
2022-11-25T15:25:22.062Z,13.29
2022-11-25T15:27:49.770Z,13.27
2022-11-25T15:30:19.466Z,13.23
2022-11-25T15:32:46.671Z,13.20
2022-11-25T15:35:18.459Z,13.17
2022-11-25T15:37:44.989Z,13.13
2022-11-25T15:40:31.411Z,13.10
2022-11-25T15:42:59.527Z,13.06
2022-11-25T15:45:27.200Z,13.03
2022-11-25T15:47:53.791Z,13.01
2022-11-25T15:50:24.832Z,12.98
2022-11-25T15:52:55.763Z,12.96
2022-11-25T15:55:36.216Z,12.93
2022-11-25T15:58:16.939Z,12.90
2022-11-25T16:00:59.249Z,12.87
2022-11-25T16:03:25.928Z,12.84
2022-11-25T16:05:56.257Z,12.81
2022-11-25T16:08:33.477Z,12.79
2022-11-25T16:11:09.542Z,12.76
2022-11-25T16:13:37.157Z,12.73
2022-11-25T16:16:03.615Z,12.70
2022-11-25T16:18:40.296Z,12.67
2022-11-25T16:21:12.504Z,12.63
2022-11-25T16:23:41.908Z,12.60
2022-11-25T16:26:11.089Z,12.56
2022-11-25T16:28:37.892Z,12.53
2022-11-25T16:31:04.317Z,12.49
2022-11-25T16:33:30.786Z,12.47
2022-11-25T16:35:57.194Z,12.41
2022-11-25T16:38:23.723Z,12.40
2022-11-25T16:40:52.526Z,12.37
2022-11-25T16:43:23.727Z,12.34
2022-11-25T16:45:51.654Z,12.29
2022-11-25T16:48:19.464Z,12.26
2022-11-25T16:50:46.475Z,12.22
2022-11-25T16:53:13.041Z,12.19
2022-11-25T16:55:41.029Z,12.15
2022-11-25T16:58:11.732Z,12.12
2022-11-25T17:00:38.203Z,12.08
2022-11-25T17:03:05.893Z,12.05
2022-11-25T17:05:33.707Z,12.01
2022-11-25T17:08:00.270Z,11.98
2022-11-25T17:10:27.053Z,11.95
2022-11-25T17:12:53.537Z,11.91
2022-11-25T17:15:21.455Z,11.89
2022-11-25T17:46:38.361Z,11.29
2022-11-25T17:49:13.196Z,11.54
2022-11-25T17:51:39.796Z,11.62
2022-11-25T17:54:06.226Z,11.70
2022-11-25T17:56:32.808Z,11.73
2022-11-25T17:59:03.843Z,11.76
2022-11-25T18:01:30.715Z,11.70
2022-11-25T18:03:57.845Z,11.64
2022-11-25T18:06:24.355Z,11.62
2022-11-25T18:08:51.093Z,11.57
2022-11-25T18:11:18.885Z,11.85
2022-11-25T18:13:47.787Z,11.54
2022-11-25T18:16:18.036Z,11.43
2022-11-25T18:18:44.655Z,11.36
2022-11-25T18:21:11.800Z,11.31
2022-11-25T18:23:38.372Z,11.24
2022-11-25T18:26:05.232Z,11.20
2022-11-25T18:28:31.992Z,11.48
2022-11-25T18:31:05.146Z,11.19
2022-11-25T18:33:32.226Z,11.10
2022-11-25T18:35:58.856Z,11.05
2022-11-25T18:38:25.547Z,11.03
2022-11-25T18:40:54.063Z,11.01
2022-11-25T18:43:24.772Z,11.00
2022-11-25T18:45:53.983Z,10.97
2022-11-25T18:48:25.884Z,11.01
2022-11-25T18:50:55.035Z,10.97
2022-11-25T18:53:21.945Z,10.95
2022-11-25T18:55:49.484Z,10.94
2022-11-25T18:58:24.914Z,11.01
2022-11-25T19:00:52.462Z,10.94
2022-11-25T19:03:22.259Z,10.97
2022-11-25T19:05:49.532Z,10.95
2022-11-25T19:08:16.349Z,10.96
2022-11-25T19:10:44.441Z,11.27
2022-11-25T19:13:27.723Z,11.10
2022-11-25T19:15:55.047Z,11.01
2022-11-25T19:18:26.751Z,11.06
2022-11-25T19:20:53.561Z,11.03
2022-11-25T19:23:22.870Z,11.33
2022-11-25T19:25:49.571Z,11.09
2022-11-25T19:28:16.661Z,11.37
2022-11-25T19:30:45.359Z,11.14
2022-11-25T19:33:19.591Z,11.15
2022-11-25T19:35:46.263Z,11.11
2022-11-25T19:38:21.491Z,11.18
2022-11-25T19:40:49.318Z,11.13
2022-11-25T19:43:15.832Z,11.15
2022-11-25T19:45:42.588Z,11.16
2022-11-25T19:48:14.500Z,11.21
2022-11-25T19:50:42.817Z,11.18
2022-11-25T19:53:16.069Z,11.22
2022-11-25T19:55:42.553Z,11.20
2022-11-25T19:58:08.990Z,11.21
2022-11-25T20:00:35.773Z,11.21
2022-11-25T20:03:02.226Z,11.51
2022-11-25T20:05:33.378Z,11.32
2022-11-25T20:08:00.448Z,11.26
2022-11-25T20:10:30.282Z,11.28
2022-11-25T20:12:57.189Z,11.28
2022-11-25T20:15:24.064Z,11.28
2022-11-25T20:17:53.809Z,11.32
2022-11-25T20:20:23.809Z,11.30
2022-11-25T20:23:00.845Z,11.39
2022-11-25T20:25:28.085Z,11.35
2022-11-25T20:27:54.772Z,11.34
2022-11-25T20:30:24.232Z,11.39
2022-11-25T20:32:51.141Z,11.38
2022-11-25T20:35:18.392Z,11.39
2022-11-25T20:37:53.992Z,11.40
2022-11-25T20:40:23.961Z,11.46
2022-11-25T20:42:51.317Z,11.46
2022-11-25T20:45:21.417Z,11.51
2022-11-25T20:47:52.892Z,11.50
2022-11-25T20:50:20.968Z,11.52
2022-11-25T20:52:49.896Z,11.57
2022-11-25T20:55:23.375Z,11.63
2022-11-25T20:57:51.992Z,11.62
2022-11-25T21:00:26.548Z,11.69
2022-11-25T21:02:55.396Z,11.68
2022-11-25T21:05:21.916Z,11.70
2022-11-25T21:07:50.292Z,11.74
2022-11-25T21:10:25.019Z,11.79
2022-11-25T21:12:52.049Z,11.75
2022-11-25T21:15:23.614Z,11.79
2022-11-25T21:17:50.762Z,11.79
2022-11-25T21:20:18.876Z,11.81
2022-11-25T21:22:49.776Z,11.84
2022-11-25T21:25:22.551Z,11.86
2022-11-25T21:27:50.999Z,11.81
2022-11-25T21:30:23.265Z,11.85
2022-11-25T21:32:54.471Z,11.83
2022-11-25T21:35:22.422Z,11.79
2022-11-25T21:37:48.867Z,11.78
2022-11-25T21:40:33.092Z,11.89
2022-11-25T21:43:00.655Z,11.78
2022-11-25T21:45:27.211Z,11.78
2022-11-25T21:47:53.704Z,11.80
2022-11-25T21:50:20.411Z,11.80
2022-11-25T21:52:46.933Z,11.80
2022-11-25T21:55:15.243Z,11.82
2022-11-25T21:57:42.339Z,11.81
2022-11-25T22:00:20.091Z,11.90
2022-11-25T22:02:46.725Z,11.83
2022-11-25T22:05:14.561Z,12.11
2022-11-25T22:07:41.182Z,11.89
2022-11-25T22:10:08.329Z,11.87
2022-11-25T22:12:39.686Z,11.85
2022-11-25T22:15:30.097Z,11.88
2022-11-25T22:17:58.211Z,11.84
2022-11-25T22:20:34.095Z,11.89
2022-11-25T22:23:01.656Z,11.83
2022-11-25T22:25:31.302Z,11.85
2022-11-25T22:27:57.896Z,11.82
2022-11-25T22:30:24.436Z,11.82
2022-11-25T22:33:00.606Z,11.89
2022-11-25T22:35:27.969Z,11.82
2022-11-25T22:37:55.487Z,11.83
2022-11-25T22:40:23.778Z,11.83
2022-11-25T22:42:52.006Z,11.85
2022-11-25T22:45:33.073Z,11.93
2022-11-25T22:48:03.519Z,11.87
2022-11-25T22:50:32.384Z,11.88
2022-11-25T22:53:00.834Z,11.88
2022-11-25T22:55:30.041Z,11.88
2022-11-25T22:57:58.954Z,11.88
2022-11-25T23:00:28.251Z,11.88
2022-11-25T23:02:56.890Z,11.89
2022-11-25T23:05:32.240Z,11.88
2022-11-25T23:08:01.350Z,11.90
2022-11-25T23:10:30.425Z,11.90
2022-11-25T23:12:56.895Z,11.89
2022-11-25T23:15:24.727Z,11.90
2022-11-25T23:17:54.657Z,11.92
2022-11-25T23:20:26.185Z,11.91
2022-11-25T23:22:52.697Z,11.90
2022-11-25T23:25:21.409Z,11.92
2022-11-25T23:27:48.607Z,11.90
2022-11-25T23:30:18.373Z,11.92
2022-11-25T23:32:45.946Z,11.91
2022-11-25T23:35:15.916Z,11.93
2022-11-25T23:37:42.349Z,11.89
2022-11-25T23:40:19.085Z,11.97
2022-11-25T23:42:45.588Z,11.90
2022-11-25T23:45:15.094Z,11.89
2022-11-25T23:47:43.581Z,11.84
2022-11-25T23:50:18.287Z,11.88
2022-11-25T23:52:44.836Z,11.79
2022-11-25T23:55:18.221Z,11.85
2022-11-25T23:57:47.571Z,11.79
